^^
Station Historical Data
Daily Summary for January 8, 2017 Units:  English    Metric   Both
« Previous Day
Next Day »
Daily Weekly Monthly Yearly Custom
  High: Low: Average:
Temperature: 22.8 °F 13.4 °F 17.6 °F
Dew Point: 14.6 °F 2.8 °F 6.9 °F
Humidity: 86% 42% 63%
Wind Speed: 7.0mph 0.0mph 1.7mph
Wind Gust: 20.0mph - -
Wind- - SSW
Pressure: 30.62 in 30.17 in -
Precipitation: 0.00 in    
Historical Graphs
 
 
Tabular Data for January 8, 2017
Time Temperature Dew Point Pressure Wind Wind Speed Wind Gust Humidity Rainfall Rate (Hourly) Conditions
00:00 18.1 °F 14.6 °F 30.17 in NNW 1.0 mph 5.0 mph 86% 0.00 in BKN
00:10 17.8 °F 13.8 °F 30.17 in NNW 1.0 mph 4.0 mph 84% 0.00 in BKN
00:20 17.3 °F 13.0 °F 30.17 in North 2.0 mph 7.0 mph 83% 0.00 in BKN
00:30 17.0 °F 12.2 °F 30.17 in Calm   6.0 mph 81% 0.00 in BKN
00:40 16.8 °F 12.0 °F 30.17 in NNE 1.0 mph 9.0 mph 81% 0.00 in BKN
00:50 16.7 °F 11.6 °F 30.17 in North 1.0 mph 8.0 mph 80% 0.00 in BKN
01:00 16.7 °F 11.3 °F 30.18 in Calm   7.0 mph 79% 0.00 in BKN
01:10 16.7 °F 11.3 °F 30.19 in Calm   8.0 mph 79% 0.00 in FEW
01:20 16.6 °F 11.2 °F 30.19 in North 2.0 mph 7.0 mph 79% 0.00 in FEW
01:30 16.7 °F 11.0 °F 30.20 in NNE 1.0 mph 6.0 mph 78% 0.00 in FEW
01:40 16.7 °F 10.7 °F 30.20 in NNE 2.0 mph 13.0 mph 77% 0.00 in FEW
01:50 16.8 °F 10.5 °F 30.20 in NNE 1.0 mph 12.0 mph 76% 0.00 in FEW
02:00 16.8 °F 10.5 °F 30.21 in Calm   8.0 mph 76% 0.00 in FEW
02:10 16.8 °F 10.2 °F 30.21 in NNE 1.0 mph 7.0 mph 75% 0.00 in SCT
02:20 16.8 °F 9.6 °F 30.22 in Calm   6.0 mph 73% 0.00 in SCT
02:30 16.7 °F 9.5 °F 30.22 in Calm   7.0 mph 73% 0.00 in SCT
02:40 16.5 °F 9.0 °F 30.22 in NNW 1.0 mph 6.0 mph 72% 0.00 in SCT
02:50 16.2 °F 9.1 °F 30.22 in Calm   3.0 mph 73% 0.00 in SCT
03:00 16.1 °F 9.0 °F 30.23 in North 2.0 mph 7.0 mph 73% 0.00 in SCT
03:10 16.0 °F 8.6 °F 30.23 in NNE 3.0 mph 9.0 mph 72% 0.00 in FEW
03:20 15.9 °F 8.5 °F 30.23 in NNE 5.0 mph 11.0 mph 72% 0.00 in FEW
03:30 15.8 °F 8.1 °F 30.23 in NW 2.0 mph 12.0 mph 71% 0.00 in FEW
03:40 15.9 °F 7.8 °F 30.23 in North 1.0 mph 12.0 mph 70% 0.00 in FEW
03:50 15.8 °F 8.0 °F 30.24 in Calm   12.0 mph 71% 0.00 in FEW
04:00 15.6 °F 7.9 °F 30.24 in North 2.0 mph 5.0 mph 71% 0.00 in FEW
04:10 15.4 °F 7.7 °F 30.24 in Calm   4.0 mph 71% 0.00 in CLR
04:20 15.3 °F 7.3 °F 30.24 in Calm   7.0 mph 70% 0.00 in CLR
04:30 15.2 °F 7.5 °F 30.24 in Calm   6.0 mph 71% 0.00 in CLR
04:40 15.0 °F 7.3 °F 30.24 in Calm   5.0 mph 71% 0.00 in CLR
04:50 14.9 °F 7.2 °F 30.24 in Calm   2.0 mph 71% 0.00 in CLR
05:00 14.7 °F 7.3 °F 30.25 in NNE 1.0 mph 5.0 mph 72% 0.00 in CLR
05:10 14.5 °F 7.1 °F 30.25 in Calm   4.0 mph 72% 0.00 in CLR
05:20 14.4 °F 7.3 °F 30.25 in NNE 1.0 mph 6.0 mph 73% 0.00 in CLR
05:30 14.4 °F 7.0 °F 30.25 in NW 1.0 mph 6.0 mph 72% 0.00 in CLR
05:40 14.4 °F 7.0 °F 30.25 in East 1.0 mph 3.0 mph 72% 0.00 in CLR
05:50 14.3 °F 6.9 °F 30.25 in Calm   6.0 mph 72% 0.00 in CLR
06:00 14.2 °F 6.8 °F 30.26 in WSW 2.0 mph 4.0 mph 72% 0.00 in CLR
06:10 14.1 °F 6.7 °F 30.26 in Calm   3.0 mph 72% 0.00 in CLR
06:20 13.9 °F 6.6 °F 30.26 in SW 1.0 mph 5.0 mph 72% 0.00 in CLR
06:30 13.8 °F 6.5 °F 30.27 in Calm   3.0 mph 72% 0.00 in CLR
06:40 13.7 °F 6.3 °F 30.27 in Calm   5.0 mph 72% 0.00 in CLR
06:50 13.7 °F 6.6 °F 30.27 in West 1.0 mph 4.0 mph 73% 0.00 in CLR
07:00 13.7 °F 6.3 °F 30.27 in Calm   2.0 mph 72% 0.00 in CLR
07:10 13.4 °F 6.4 °F 30.27 in Calm   1.0 mph 73% 0.00 in CLR
07:20 13.5 °F 6.7 °F 30.28 in Calm   4.0 mph 74% 0.00 in CLR
07:30 13.8 °F 6.4 °F 30.28 in Calm   4.0 mph 72% 0.00 in CLR
07:40 14.1 °F 6.1 °F 30.28 in Calm   4.0 mph 70% 0.00 in CLR
07:50 14.3 °F 6.0 °F 30.29 in WNW 1.0 mph 5.0 mph 69% 0.00 in CLR
08:00 14.5 °F 6.2 °F 30.29 in East 1.0 mph 4.0 mph 69% 0.00 in CLR
08:10 14.7 °F 6.0 °F 30.29 in WSW 1.0 mph 6.0 mph 68% 0.00 in FEW
08:20 14.7 °F 5.7 °F 30.30 in South 1.0 mph 9.0 mph 67% 0.00 in FEW
09:30 16.2 °F 6.1 °F 30.30 in West 1.0 mph 10.0 mph 64% 0.00 in FEW
09:40 16.7 °F 6.6 °F 30.30 in West 1.0 mph 9.0 mph 64% 0.00 in FEW
09:50 17.0 °F 6.2 °F 30.30 in North 2.0 mph 10.0 mph 62% 0.00 in FEW
10:00 17.4 °F 6.6 °F 30.31 in NE 1.0 mph 4.0 mph 62% 0.00 in FEW
10:10 17.9 °F 6.7 °F 30.31 in WNW 3.0 mph 9.0 mph 61% 0.00 in FEW
10:20 17.6 °F 6.1 °F 30.31 in NNW 1.0 mph 10.0 mph 60% 0.00 in FEW
10:30 17.4 °F 5.8 °F 30.31 in WNW 1.0 mph 13.0 mph 60% 0.00 in FEW
10:40 17.3 °F 6.1 °F 30.31 in WNW 3.0 mph 9.0 mph 61% 0.00 in FEW
10:50 17.7 °F 6.5 °F 30.31 in West 2.0 mph 9.0 mph 61% 0.00 in FEW
11:00 17.8 °F 6.3 °F 30.30 in NW 2.0 mph 7.0 mph 60% 0.00 in FEW
11:10 17.9 °F 6.0 °F 30.30 in North 5.0 mph 12.0 mph 59% 0.00 in FEW
11:20 18.3 °F 6.4 °F 30.29 in WNW 6.0 mph 16.0 mph 59% 0.00 in FEW
11:30 18.6 °F 6.3 °F 30.29 in North 5.0 mph 15.0 mph 58% 0.00 in FEW
11:40 19.1 °F 6.8 °F 30.29 in North 2.0 mph 14.0 mph 58% 0.00 in FEW
11:50 19.5 °F 6.8 °F 30.29 in WNW 3.0 mph 10.0 mph 57% 0.00 in FEW
12:00 20.1 °F 7.7 °F 30.29 in West 1.0 mph 12.0 mph 58% 0.00 in FEW
12:10 20.2 °F 7.0 °F 30.29 in WSW 2.0 mph 10.0 mph 56% 0.00 in BKN
12:20 20.1 °F 6.9 °F 30.29 in WNW 5.0 mph 10.0 mph 56% 0.00 in BKN
12:30 19.9 °F 7.1 °F 30.28 in NNE 6.0 mph 13.0 mph 57% 0.00 in BKN
12:40 19.9 °F 6.3 °F 30.29 in NNE 3.0 mph 10.0 mph 55% 0.00 in BKN
12:50 19.8 °F 7.0 °F 30.29 in South 1.0 mph 8.0 mph 57% 0.00 in BKN
13:00 20.1 °F 7.7 °F 30.29 in NNE 3.0 mph 7.0 mph 58% 0.00 in BKN
13:10 20.0 °F 7.6 °F 30.29 in Calm   10.0 mph 58% 0.00 in BKN
13:20 19.8 °F 7.0 °F 30.29 in WNW 5.0 mph 9.0 mph 57% 0.00 in BKN
13:30 20.1 °F 7.7 °F 30.29 in WNW 2.0 mph 7.0 mph 58% 0.00 in BKN
13:40 20.9 °F 8.0 °F 30.29 in WNW 5.0 mph 14.0 mph 57% 0.00 in BKN
13:50 20.9 °F 8.4 °F 30.30 in North 2.0 mph 12.0 mph 58% 0.00 in BKN
14:00 20.9 °F 8.8 °F 30.30 in North 3.0 mph 12.0 mph 59% 0.00 in BKN
14:10 21.5 °F 8.6 °F 30.30 in NE 7.0 mph 18.0 mph 57% 0.00 in BKN
14:20 21.8 °F 8.5 °F 30.30 in NE 3.0 mph 15.0 mph 56% 0.00 in BKN
14:30 22.1 °F 8.8 °F 30.31 in ENE 3.0 mph 20.0 mph 56% 0.00 in BKN
14:40 22.3 °F 9.0 °F 30.31 in North 3.0 mph 17.0 mph 56% 0.00 in BKN
14:50 22.6 °F 8.0 °F 30.32 in NNW 3.0 mph 14.0 mph 53% 0.00 in BKN
15:00 22.8 °F 8.2 °F 30.32 in NW 1.0 mph 7.0 mph 53% 0.00 in BKN
15:10 22.4 °F 8.3 °F 30.33 in SE 1.0 mph 10.0 mph 54% 0.00 in BKN
15:20 22.1 °F 6.7 °F 30.33 in WNW 3.0 mph 10.0 mph 51% 0.00 in BKN
15:30 21.9 °F 7.4 °F 30.33 in NNW 1.0 mph 8.0 mph 53% 0.00 in BKN
15:40 21.7 °F 5.9 °F 30.34 in Calm   8.0 mph 50% 0.00 in BKN
15:50 22.1 °F 4.9 °F 30.34 in NE 1.0 mph 9.0 mph 47% 0.00 in BKN
16:00 22.6 °F 4.4 °F 30.35 in NE 2.0 mph 10.0 mph 45% 0.00 in BKN
16:10 22.5 °F 2.8 °F 30.36 in SW 1.0 mph 15.0 mph 42% 0.00 in BKN
16:20 21.9 °F 6.1 °F 30.37 in SW 2.0 mph 17.0 mph 50% 0.00 in BKN
16:30 21.6 °F 4.9 °F 30.37 in ENE 1.0 mph 9.0 mph 48% 0.00 in BKN
16:40 21.3 °F 3.7 °F 30.38 in NNW 6.0 mph 14.0 mph 46% 0.00 in BKN
16:50 21.1 °F 4.0 °F 30.39 in North 3.0 mph 13.0 mph 47% 0.00 in BKN
17:00 20.7 °F 3.6 °F 30.39 in NE 1.0 mph 13.0 mph 47% 0.00 in BKN
17:10 20.4 °F 4.2 °F 30.40 in North 1.0 mph 9.0 mph 49% 0.00 in BKN
17:20 20.2 °F 4.5 °F 30.40 in NNE 2.0 mph 13.0 mph 50% 0.00 in BKN
17:30 20.1 °F 5.2 °F 30.41 in NNE 1.0 mph 13.0 mph 52% 0.00 in BKN
17:40 19.7 °F 4.9 °F 30.42 in SSW 2.0 mph 16.0 mph 52% 0.00 in BKN
17:50 19.6 °F 5.2 °F 30.42 in West 1.0 mph 9.0 mph 53% 0.00 in BKN
18:00 19.6 °F 5.2 °F 30.43 in West 2.0 mph 9.0 mph 53% 0.00 in BKN
18:10 19.4 °F 5.4 °F 30.44 in NW 2.0 mph 7.0 mph 54% 0.00 in CLR
18:20 19.3 °F 4.9 °F 30.45 in WNW 5.0 mph 14.0 mph 53% 0.00 in CLR
18:30 19.4 °F 5.4 °F 30.45 in WNW 3.0 mph 15.0 mph 54% 0.00 in CLR
18:40 19.4 °F 4.6 °F 30.46 in SSW 2.0 mph 18.0 mph 52% 0.00 in CLR
18:50 19.2 °F 4.8 °F 30.47 in ESE 2.0 mph 8.0 mph 53% 0.00 in CLR
19:10 18.8 °F 5.3 °F 30.48 in North 1.0 mph 8.0 mph 55% 0.00 in FEW
19:20 18.6 °F 5.5 °F 30.49 in NW 6.0 mph 12.0 mph 56% 0.00 in FEW
19:30 18.5 °F 5.0 °F 30.50 in WNW 3.0 mph 12.0 mph 55% 0.00 in FEW
19:40 18.3 °F 4.8 °F 30.50 in NW 2.0 mph 8.0 mph 55% 0.00 in FEW
19:50 18.2 °F 4.7 °F 30.51 in West 1.0 mph 9.0 mph 55% 0.00 in FEW
20:00 17.9 °F 4.8 °F 30.51 in NNW 1.0 mph 6.0 mph 56% 0.00 in FEW
20:10 17.7 °F 5.0 °F 30.52 in WNW 1.0 mph 8.0 mph 57% 0.00 in CLR
20:20 17.5 °F 5.2 °F 30.53 in North 2.0 mph 10.0 mph 58% 0.00 in CLR
20:30 17.3 °F 5.0 °F 30.53 in WSW 2.0 mph 9.0 mph 58% 0.00 in CLR
20:40 17.1 °F 5.2 °F 30.54 in WSW 2.0 mph 15.0 mph 59% 0.00 in CLR
20:50 16.9 °F 5.0 °F 30.54 in ENE 1.0 mph 12.0 mph 59% 0.00 in CLR
21:00 16.7 °F 5.2 °F 30.55 in WSW 2.0 mph 7.0 mph 60% 0.00 in CLR
21:10 16.6 °F 5.5 °F 30.55 in West 1.0 mph 7.0 mph 61% 0.00 in CLR
21:20 16.5 °F 5.4 °F 30.56 in SW 1.0 mph 8.0 mph 61% 0.00 in CLR
21:30 16.4 °F 5.6 °F 30.56 in NNW 2.0 mph 8.0 mph 62% 0.00 in CLR
21:40 16.3 °F 5.5 °F 30.57 in Calm   6.0 mph 62% 0.00 in CLR
21:50 16.1 °F 5.0 °F 30.57 in Calm   8.0 mph 61% 0.00 in CLR
22:00 16.0 °F 5.3 °F 30.58 in West 2.0 mph 6.0 mph 62% 0.00 in CLR
22:10 15.9 °F 5.1 °F 30.58 in NE 1.0 mph 9.0 mph 62% 0.00 in CLR
22:20 15.8 °F 5.4 °F 30.58 in NW 2.0 mph 9.0 mph 63% 0.00 in CLR
22:30 15.8 °F 5.8 °F 30.59 in North 1.0 mph 6.0 mph 64% 0.00 in CLR
22:40 15.7 °F 5.7 °F 30.60 in WNW 2.0 mph 9.0 mph 64% 0.00 in CLR
22:50 15.6 °F 5.6 °F 30.60 in WNW 3.0 mph 12.0 mph 64% 0.00 in CLR
23:00 15.5 °F 5.1 °F 30.60 in WNW 3.0 mph 8.0 mph 63% 0.00 in CLR
23:10 15.5 °F 5.1 °F 30.61 in WSW 1.0 mph 8.0 mph 63% 0.00 in CLR
23:20 15.4 °F 5.0 °F 30.61 in South 1.0 mph 7.0 mph 63% 0.00 in CLR
23:30 15.3 °F 4.9 °F 30.61 in SSE 2.0 mph 13.0 mph 63% 0.00 in CLR
23:40 15.2 °F 4.5 °F 30.61 in Calm   13.0 mph 62% 0.00 in CLR
23:50 15.1 °F 4.4 °F 30.62 in WSW 1.0 mph 9.0 mph 62% 0.00 in CLR
TarryTown NY Weather
Compliments of Weather Underground - 1.75 mb